createdAt,value
2019-03-31T00:01:49.346Z,15.90
2019-03-31T00:04:19.493Z,15.80
2019-03-31T00:06:49.664Z,14.80
2019-03-31T00:09:19.946Z,15.77
2019-03-31T00:11:50.179Z,16.60
2019-03-31T00:14:20.331Z,16.47
2019-03-31T00:16:52.501Z,15.90
2019-03-31T00:19:22.464Z,16.50
2019-03-31T00:21:52.779Z,17.33
2019-03-31T00:24:22.711Z,16.70
2019-03-31T00:26:52.883Z,15.97
2019-03-31T00:29:23.069Z,15.70
2019-03-31T00:31:53.354Z,17.97
2019-03-31T00:34:23.471Z,16.90
2019-03-31T00:36:53.668Z,17.90
2019-03-31T00:39:23.979Z,16.20
2019-03-31T00:41:54.242Z,17.17
2019-03-31T00:44:24.290Z,18.57
2019-03-31T00:46:54.707Z,19.53
2019-03-31T00:49:24.791Z,19.30
2019-03-31T00:51:54.755Z,21.17
2019-03-31T00:54:27.654Z,18.60
2019-03-31T00:56:56.584Z,18.37
2019-03-31T00:59:26.851Z,16.93
2019-03-31T01:02:00.587Z,16.80
2019-03-31T01:04:32.450Z,16.33
2019-03-31T01:07:03.749Z,16.90
2019-03-31T01:09:35.325Z,17.70
2019-03-31T01:12:05.799Z,17.27
2019-03-31T01:14:35.969Z,16.77
2019-03-31T01:17:08.798Z,20.47
2019-03-31T01:19:39.113Z,17.83
2019-03-31T01:22:09.498Z,16.67
2019-03-31T01:24:39.674Z,17.40
2019-03-31T01:27:11.057Z,19.30
2019-03-31T01:29:41.371Z,16.77
2019-03-31T01:32:11.346Z,16.90
2019-03-31T01:34:41.659Z,16.47
2019-03-31T01:37:12.486Z,17.93
2019-03-31T01:39:42.778Z,20.37
2019-03-31T01:42:12.751Z,18.13
2019-03-31T01:44:42.771Z,18.33
2019-03-31T01:47:12.906Z,16.33
2019-03-31T01:49:42.821Z,18.73
2019-03-31T01:52:13.152Z,16.67
2019-03-31T01:54:43.410Z,17.07
2019-03-31T01:57:13.576Z,16.83
2019-03-31T01:59:43.694Z,16.53
2019-03-31T02:02:18.500Z,16.67
2019-03-31T02:04:48.914Z,16.27
2019-03-31T02:07:19.061Z,17.97
2019-03-31T02:09:49.030Z,18.10
2019-03-31T02:12:19.308Z,16.90
2019-03-31T02:14:49.521Z,19.40
2019-03-31T02:17:20.132Z,19.70
2019-03-31T02:19:50.429Z,16.30
2019-03-31T02:22:20.589Z,16.53
2019-03-31T02:24:50.658Z,17.70
2019-03-31T02:27:20.751Z,18.43
2019-03-31T02:29:50.949Z,17.73
2019-03-31T02:32:24.042Z,18.43
2019-03-31T02:34:53.235Z,17.13
2019-03-31T02:37:23.319Z,17.50
2019-03-31T02:39:53.595Z,17.03
2019-03-31T02:42:24.038Z,17.87
2019-03-31T02:44:53.971Z,17.93
2019-03-31T02:47:24.411Z,19.47
2019-03-31T02:49:54.590Z,17.70
2019-03-31T02:52:24.579Z,17.47
2019-03-31T02:54:54.657Z,17.57
2019-03-31T02:57:25.132Z,18.53
2019-03-31T02:59:56.062Z,17.57
2019-03-31T03:02:41.317Z,17.20
2019-03-31T03:05:17.822Z,19.70
2019-03-31T03:07:37.555Z,19.40
2019-03-31T03:10:08.326Z,21.63
2019-03-31T03:12:42.705Z,19.57
2019-03-31T03:15:14.534Z,21.17
2019-03-31T03:17:44.570Z,18.07
2019-03-31T03:20:14.679Z,17.50
2019-03-31T03:22:44.883Z,16.87
2019-03-31T03:25:15.060Z,16.83
2019-03-31T03:27:45.294Z,17.20
2019-03-31T03:30:15.246Z,17.20
2019-03-31T03:33:12.223Z,17.13
2019-03-31T03:35:17.193Z,16.33
2019-03-31T03:37:47.220Z,16.70
2019-03-31T03:40:17.429Z,17.30
2019-03-31T03:42:47.384Z,17.70
2019-03-31T03:45:17.321Z,18.40
2019-03-31T03:47:47.319Z,17.00
2019-03-31T03:50:17.326Z,17.60
2019-03-31T03:52:47.498Z,18.83
2019-03-31T03:55:17.662Z,17.43
2019-03-31T03:57:47.959Z,23.33
2019-03-31T04:00:18.077Z,18.37
2019-03-31T04:02:48.282Z,18.83
2019-03-31T04:05:18.402Z,20.97
2019-03-31T04:07:48.387Z,22.80
2019-03-31T04:10:53.635Z,19.00
2019-03-31T04:13:23.856Z,17.60
2019-03-31T04:15:54.063Z,20.57
2019-03-31T04:18:24.221Z,20.07
2019-03-31T04:20:54.338Z,20.70
2019-03-31T04:23:24.317Z,19.00
2019-03-31T04:25:54.640Z,20.30
2019-03-31T04:28:24.851Z,16.77
2019-03-31T04:30:54.969Z,17.80
2019-03-31T04:33:25.171Z,18.87
2019-03-31T04:35:55.517Z,19.03
2019-03-31T04:38:25.750Z,18.53
2019-03-31T04:40:55.924Z,18.53
2019-03-31T04:43:25.886Z,17.17
2019-03-31T04:45:55.918Z,22.23
2019-03-31T04:48:26.003Z,20.07
2019-03-31T04:50:56.254Z,20.17
2019-03-31T04:53:26.388Z,20.13
2019-03-31T04:55:56.716Z,18.13
2019-03-31T04:58:26.868Z,17.87
2019-03-31T05:00:57.293Z,19.43
2019-03-31T05:03:27.265Z,17.47
2019-03-31T05:05:57.261Z,24.17
2019-03-31T05:08:27.406Z,25.17
2019-03-31T05:10:57.796Z,26.27
2019-03-31T05:13:27.958Z,24.90
2019-03-31T05:15:58.169Z,26.20
2019-03-31T05:18:28.175Z,23.30
2019-03-31T05:20:58.190Z,23.50
2019-03-31T05:23:28.729Z,21.13
2019-03-31T05:25:58.643Z,24.50
2019-03-31T05:28:28.794Z,205.93
2019-03-31T05:30:59.169Z,58.90
2019-03-31T05:33:29.314Z,36.20
2019-03-31T05:35:59.598Z,58.77
2019-03-31T05:38:29.595Z,55.40
2019-03-31T05:40:59.630Z,36.60
2019-03-31T05:43:29.820Z,23.80
2019-03-31T05:46:00.851Z,19.53
2019-03-31T05:48:31.048Z,20.53
2019-03-31T05:51:01.108Z,19.60
2019-03-31T05:53:31.286Z,17.07
2019-03-31T05:56:01.506Z,17.90
2019-03-31T05:58:31.633Z,21.97
2019-03-31T06:01:01.740Z,21.13
2019-03-31T06:03:31.902Z,35.03
2019-03-31T06:06:02.206Z,32.83
2019-03-31T06:08:32.400Z,30.93
2019-03-31T06:11:02.466Z,27.20
2019-03-31T06:13:32.514Z,26.30
2019-03-31T06:16:02.694Z,30.73
2019-03-31T06:18:32.667Z,32.43
2019-03-31T06:21:02.938Z,30.57
2019-03-31T06:23:33.115Z,31.10
2019-03-31T06:26:03.596Z,37.67
2019-03-31T06:28:33.788Z,32.03
2019-03-31T06:31:03.997Z,32.17
2019-03-31T06:33:34.177Z,30.77
2019-03-31T06:36:04.458Z,32.03
2019-03-31T06:38:34.756Z,26.87
2019-03-31T06:41:04.722Z,24.67
2019-03-31T06:43:34.992Z,30.73
2019-03-31T06:46:05.019Z,30.17
2019-03-31T06:48:35.238Z,29.47
2019-03-31T06:51:05.542Z,29.87
2019-03-31T06:53:35.670Z,28.73
2019-03-31T06:56:05.903Z,28.70
2019-03-31T06:58:35.927Z,27.67
2019-03-31T07:01:05.959Z,31.03
2019-03-31T07:03:35.934Z,25.60
2019-03-31T07:06:06.047Z,26.83
2019-03-31T07:08:36.174Z,25.70
2019-03-31T07:11:06.410Z,24.53
2019-03-31T07:13:36.628Z,24.33
2019-03-31T07:16:07.139Z,22.87
2019-03-31T07:18:38.325Z,25.23
2019-03-31T07:21:08.533Z,29.90
2019-03-31T07:23:38.787Z,29.33
2019-03-31T07:26:08.966Z,24.33
2019-03-31T07:28:39.210Z,23.00
2019-03-31T07:31:09.407Z,31.40
2019-03-31T07:33:39.628Z,29.43
2019-03-31T07:36:09.865Z,26.57
2019-03-31T07:38:40.323Z,21.73
2019-03-31T07:41:13.029Z,20.63
2019-03-31T07:43:43.270Z,19.07
2019-03-31T07:46:13.746Z,16.23
2019-03-31T07:48:43.728Z,17.27
2019-03-31T07:51:13.943Z,16.07
2019-03-31T07:53:43.934Z,16.33
2019-03-31T07:56:16.118Z,15.50
2019-03-31T07:58:47.163Z,14.87
2019-03-31T08:01:17.377Z,15.43
2019-03-31T08:03:47.550Z,13.83
2019-03-31T08:06:17.937Z,13.43
2019-03-31T08:08:48.188Z,13.27
2019-03-31T08:11:20.170Z,12.17
2019-03-31T08:13:50.359Z,12.03
2019-03-31T08:16:20.555Z,13.23
2019-03-31T08:18:50.786Z,13.08
2019-03-31T08:21:21.059Z,12.53
2019-03-31T08:23:51.206Z,12.50
2019-03-31T08:26:21.475Z,11.73
2019-03-31T08:28:51.673Z,10.85
2019-03-31T08:31:21.884Z,10.63
2019-03-31T08:33:53.152Z,9.03
2019-03-31T08:36:23.436Z,9.60
2019-03-31T08:38:53.425Z,10.13
2019-03-31T08:41:23.707Z,10.35
2019-03-31T08:43:53.849Z,8.85
2019-03-31T08:46:24.056Z,9.70
2019-03-31T08:48:54.291Z,7.08
2019-03-31T08:51:24.516Z,7.00
2019-03-31T08:53:54.496Z,6.42
2019-03-31T08:56:24.704Z,6.00
2019-03-31T08:58:54.884Z,4.67
2019-03-31T09:01:25.045Z,5.47
2019-03-31T09:03:55.140Z,5.10
2019-03-31T09:06:25.444Z,5.53
2019-03-31T09:08:55.439Z,4.62
2019-03-31T09:11:25.600Z,4.92
2019-03-31T09:13:55.823Z,4.35
2019-03-31T09:16:26.073Z,5.60
2019-03-31T09:18:56.232Z,4.70
2019-03-31T09:21:26.384Z,4.97
2019-03-31T09:23:56.630Z,3.55
2019-03-31T09:26:27.120Z,5.03
2019-03-31T09:28:57.273Z,4.30
2019-03-31T09:31:27.337Z,4.10
2019-03-31T09:33:57.346Z,4.50
2019-03-31T09:36:27.505Z,6.22
2019-03-31T09:38:57.694Z,9.93
2019-03-31T09:41:27.892Z,5.20
2019-03-31T09:43:58.076Z,5.20
2019-03-31T09:46:28.102Z,8.15
2019-03-31T09:48:58.099Z,5.55
2019-03-31T09:51:28.434Z,6.20
2019-03-31T09:53:58.652Z,5.85
2019-03-31T09:56:28.608Z,6.97
2019-03-31T09:58:58.698Z,6.80
2019-03-31T10:01:29.000Z,4.50
2019-03-31T10:03:59.225Z,5.00
2019-03-31T10:06:30.521Z,3.83
2019-03-31T10:09:01.735Z,5.03
2019-03-31T10:11:31.931Z,5.20
2019-03-31T10:14:02.110Z,5.12
2019-03-31T10:16:32.307Z,4.50
2019-03-31T10:19:02.502Z,4.22
2019-03-31T10:21:32.631Z,5.25
2019-03-31T10:24:02.755Z,4.85
2019-03-31T10:26:33.014Z,4.42
2019-03-31T10:29:03.116Z,5.58
2019-03-31T10:31:33.411Z,4.80
2019-03-31T10:34:03.903Z,5.10
2019-03-31T10:36:44.470Z,4.78
2019-03-31T10:39:08.222Z,4.75
2019-03-31T10:41:38.373Z,4.17
2019-03-31T10:44:08.755Z,5.87
2019-03-31T10:46:38.942Z,5.62
2019-03-31T10:49:09.249Z,4.80
2019-03-31T10:51:39.275Z,4.55
2019-03-31T10:54:09.605Z,4.75
2019-03-31T10:56:39.825Z,4.75
2019-03-31T10:59:10.089Z,5.35
2019-03-31T11:01:40.385Z,5.17
2019-03-31T11:04:10.572Z,5.78
2019-03-31T11:06:40.680Z,4.65
2019-03-31T11:09:10.972Z,5.92
2019-03-31T11:11:41.152Z,5.55
2019-03-31T11:14:11.357Z,4.95
2019-03-31T11:16:41.468Z,6.80
2019-03-31T11:19:11.491Z,5.20
2019-03-31T11:21:47.736Z,5.83
2019-03-31T11:24:17.854Z,5.33
2019-03-31T11:26:47.779Z,5.35
2019-03-31T11:29:17.919Z,7.08
2019-03-31T11:31:48.201Z,6.28
2019-03-31T11:34:19.781Z,5.50
2019-03-31T11:36:49.909Z,5.20
2019-03-31T11:39:20.141Z,5.30
2019-03-31T11:41:50.193Z,5.83
2019-03-31T11:44:20.457Z,5.80
2019-03-31T11:46:50.572Z,5.85
2019-03-31T11:49:20.815Z,6.10
2019-03-31T11:51:50.830Z,5.45
2019-03-31T11:54:20.798Z,5.50
2019-03-31T11:56:50.948Z,5.15
2019-03-31T11:59:21.346Z,5.40
2019-03-31T12:01:51.509Z,4.55
2019-03-31T12:04:21.769Z,4.53
2019-03-31T12:06:51.930Z,6.70
2019-03-31T12:09:22.123Z,6.87
2019-03-31T12:11:52.545Z,5.80
2019-03-31T12:14:22.803Z,5.83
2019-03-31T12:16:52.944Z,7.08
2019-03-31T12:19:23.240Z,5.65
2019-03-31T12:21:53.409Z,6.47
2019-03-31T12:24:23.483Z,6.55
2019-03-31T12:26:53.740Z,5.53
2019-03-31T12:29:23.822Z,5.42
2019-03-31T12:31:53.979Z,5.83
2019-03-31T12:34:23.963Z,4.90
2019-03-31T12:36:54.251Z,6.80
2019-03-31T12:39:24.437Z,7.03
2019-03-31T12:41:54.516Z,6.35
2019-03-31T12:44:25.180Z,6.97
2019-03-31T12:46:56.293Z,5.97
2019-03-31T12:49:26.858Z,5.80
2019-03-31T12:51:57.037Z,6.47
2019-03-31T12:54:27.388Z,5.50
2019-03-31T12:56:57.684Z,5.60
2019-03-31T12:59:27.825Z,5.87
2019-03-31T13:01:58.048Z,8.15
2019-03-31T13:04:28.250Z,6.33
2019-03-31T13:06:58.370Z,6.17
2019-03-31T13:09:28.603Z,5.35
2019-03-31T13:11:58.678Z,6.42
2019-03-31T13:14:28.646Z,5.87
2019-03-31T13:17:01.455Z,11.53
2019-03-31T13:19:30.499Z,8.80
2019-03-31T13:22:00.720Z,6.45
2019-03-31T13:24:30.701Z,7.33
2019-03-31T13:27:00.851Z,9.50
2019-03-31T13:29:30.835Z,6.40
2019-03-31T13:32:00.851Z,5.90
2019-03-31T13:34:31.146Z,6.10
2019-03-31T13:37:01.496Z,6.17
2019-03-31T13:39:31.651Z,7.70
2019-03-31T13:42:02.390Z,6.30
2019-03-31T13:44:32.363Z,6.80
2019-03-31T13:47:02.542Z,8.27
2019-03-31T13:49:33.003Z,6.57
2019-03-31T13:52:03.166Z,6.50
2019-03-31T13:54:33.277Z,6.70
2019-03-31T13:57:03.765Z,5.93
2019-03-31T13:59:34.212Z,6.23
2019-03-31T14:02:04.302Z,6.20
2019-03-31T14:04:40.326Z,6.83
2019-03-31T14:07:06.340Z,6.47
2019-03-31T14:09:36.319Z,6.00
2019-03-31T14:12:07.779Z,9.83
2019-03-31T14:14:39.048Z,8.27
2019-03-31T14:17:09.067Z,6.40
2019-03-31T14:19:39.350Z,6.77
2019-03-31T14:22:09.371Z,6.27
2019-03-31T14:24:39.520Z,7.43
2019-03-31T14:27:09.755Z,7.27
2019-03-31T14:29:42.463Z,5.97
2019-03-31T14:32:12.069Z,6.80
2019-03-31T14:34:41.995Z,6.53
2019-03-31T14:37:12.168Z,6.63
2019-03-31T14:39:42.405Z,10.83
2019-03-31T14:42:12.770Z,6.10
2019-03-31T14:44:42.699Z,7.57
2019-03-31T14:47:12.940Z,7.20
2019-03-31T14:49:42.963Z,5.67
2019-03-31T14:52:26.570Z,6.33
2019-03-31T14:54:45.157Z,5.53
2019-03-31T14:57:15.619Z,7.03
2019-03-31T14:59:45.835Z,7.73
2019-03-31T15:02:15.768Z,6.47
2019-03-31T15:04:45.948Z,7.33
2019-03-31T15:07:16.273Z,5.63
2019-03-31T15:09:46.471Z,13.10
2019-03-31T15:12:16.546Z,7.20
2019-03-31T15:14:49.037Z,5.80
2019-03-31T15:17:19.203Z,6.47
2019-03-31T15:19:49.504Z,6.10
2019-03-31T15:22:19.670Z,5.83
2019-03-31T15:24:49.845Z,8.80
2019-03-31T15:27:20.228Z,7.43
2019-03-31T15:29:50.374Z,11.60
2019-03-31T15:32:20.552Z,8.03
2019-03-31T15:34:50.629Z,5.60
2019-03-31T15:37:20.543Z,5.17
2019-03-31T15:39:50.833Z,7.73
2019-03-31T15:42:21.016Z,9.67
2019-03-31T15:44:51.317Z,9.00
2019-03-31T15:47:21.427Z,6.67
2019-03-31T15:49:52.925Z,7.83
2019-03-31T15:52:23.029Z,12.37
2019-03-31T15:54:53.315Z,21.67
2019-03-31T15:57:23.431Z,13.97
2019-03-31T15:59:53.996Z,29.60
2019-03-31T16:02:25.748Z,70.50
2019-03-31T16:04:57.898Z,52.57
2019-03-31T16:07:28.106Z,25.23
2019-03-31T16:09:59.255Z,11.17
2019-03-31T16:12:28.989Z,13.50
2019-03-31T16:14:58.666Z,9.87
2019-03-31T16:17:28.327Z,10.50
2019-03-31T16:19:59.352Z,8.90
2019-03-31T16:22:28.754Z,6.27
2019-03-31T16:25:00.056Z,11.00
2019-03-31T16:27:29.810Z,14.23
2019-03-31T16:29:59.359Z,15.03
2019-03-31T16:32:30.456Z,12.27
2019-03-31T16:35:02.394Z,29.23
2019-03-31T16:37:32.113Z,57.37
2019-03-31T16:40:01.716Z,30.60
2019-03-31T16:42:31.183Z,23.60
2019-03-31T16:45:00.991Z,25.73
2019-03-31T16:47:30.845Z,58.77
2019-03-31T16:50:00.554Z,56.77
2019-03-31T16:52:30.130Z,60.23
2019-03-31T16:54:59.785Z,27.17
2019-03-31T16:57:29.292Z,20.47
2019-03-31T16:59:58.861Z,29.03
2019-03-31T17:02:28.468Z,38.80
2019-03-31T17:04:58.294Z,29.63
2019-03-31T17:07:27.798Z,23.17
2019-03-31T17:09:57.489Z,12.37
2019-03-31T17:12:27.133Z,11.63
2019-03-31T17:14:56.828Z,14.33
2019-03-31T17:17:26.629Z,10.90
2019-03-31T17:19:56.327Z,9.17
2019-03-31T17:22:25.929Z,8.70
2019-03-31T17:24:56.087Z,9.37
2019-03-31T17:27:25.878Z,9.50
2019-03-31T17:29:55.518Z,10.73
2019-03-31T17:32:25.170Z,30.80
2019-03-31T17:34:56.548Z,58.97
2019-03-31T17:37:25.962Z,31.50
2019-03-31T17:40:06.098Z,12.67
2019-03-31T17:42:27.009Z,10.60
2019-03-31T17:44:56.458Z,12.10
2019-03-31T17:47:26.201Z,12.40
2019-03-31T17:49:56.130Z,12.07
2019-03-31T17:52:28.062Z,10.50
2019-03-31T17:54:57.776Z,12.03
2019-03-31T17:57:27.176Z,28.43
2019-03-31T17:59:56.921Z,22.37
2019-03-31T18:02:26.726Z,15.80
2019-03-31T18:04:56.528Z,16.63
2019-03-31T18:07:28.106Z,13.40
2019-03-31T18:09:57.938Z,14.17
2019-03-31T18:12:27.438Z,13.17
2019-03-31T18:14:57.090Z,6.43
2019-03-31T18:17:26.828Z,6.53
2019-03-31T18:19:58.630Z,6.73
2019-03-31T18:22:29.282Z,6.70
2019-03-31T18:24:59.523Z,6.63
2019-03-31T18:27:29.093Z,7.43
2019-03-31T18:29:58.515Z,6.67
2019-03-31T18:32:28.164Z,5.73
2019-03-31T18:34:58.002Z,7.63
2019-03-31T18:37:27.681Z,9.33
2019-03-31T18:39:57.365Z,17.43
2019-03-31T18:42:26.988Z,38.50
2019-03-31T18:44:56.720Z,22.50
2019-03-31T18:47:26.234Z,13.87
2019-03-31T18:49:55.904Z,9.93
2019-03-31T18:52:25.411Z,18.53
2019-03-31T18:55:11.281Z,18.17
2019-03-31T18:57:49.608Z,16.57
2019-03-31T19:00:44.538Z,15.67
2019-03-31T19:03:33.348Z,16.30
2019-03-31T19:06:40.943Z,15.17
2019-03-31T19:09:25.983Z,11.47
2019-03-31T19:12:15.540Z,14.57
2019-03-31T19:14:55.081Z,10.53
2019-03-31T19:17:40.176Z,12.20
2019-03-31T19:20:31.833Z,14.73
2019-03-31T19:23:27.904Z,9.20
2019-03-31T19:26:31.973Z,9.57
2019-03-31T19:29:23.007Z,9.40
2019-03-31T19:32:25.326Z,11.23
2019-03-31T19:35:33.437Z,12.50
2019-03-31T19:38:13.757Z,13.23
2019-03-31T19:41:09.693Z,11.50
2019-03-31T19:44:01.397Z,16.60
2019-03-31T19:46:38.041Z,13.90
2019-03-31T19:49:32.531Z,12.70
2019-03-31T19:52:19.635Z,16.77
2019-03-31T19:55:07.032Z,16.67
2019-03-31T19:57:58.379Z,16.53
2019-03-31T20:00:39.923Z,10.97
2019-03-31T20:03:34.422Z,10.10
2019-03-31T20:06:38.143Z,10.40
2019-03-31T20:09:30.250Z,12.67
2019-03-31T20:12:05.799Z,11.13
2019-03-31T20:14:53.480Z,11.90
2019-03-31T20:17:35.224Z,10.97
2019-03-31T20:20:22.883Z,12.20
2019-03-31T20:23:23.599Z,15.93
2019-03-31T20:26:15.184Z,13.17
2019-03-31T20:29:15.818Z,12.50
2019-03-31T20:31:55.214Z,9.83
2019-03-31T20:34:30.730Z,10.83
2019-03-31T20:37:18.067Z,10.43
2019-03-31T20:40:12.649Z,12.30
2019-03-31T20:43:01.468Z,13.60
2019-03-31T20:45:31.158Z,10.90
2019-03-31T20:48:00.578Z,11.37
2019-03-31T20:50:29.988Z,10.07
2019-03-31T20:52:59.614Z,12.90
2019-03-31T20:55:29.386Z,14.37
2019-03-31T20:57:59.058Z,11.33
2019-03-31T21:00:28.616Z,10.33
2019-03-31T21:02:58.217Z,11.23
2019-03-31T21:05:27.917Z,16.90
2019-03-31T21:07:57.516Z,15.27
2019-03-31T21:10:27.008Z,11.07
2019-03-31T21:12:56.788Z,10.20
2019-03-31T21:15:26.185Z,11.37
2019-03-31T21:17:56.002Z,9.30
2019-03-31T21:20:25.670Z,10.17
2019-03-31T21:22:55.379Z,10.30
2019-03-31T21:25:24.943Z,9.90
2019-03-31T21:27:54.675Z,17.00
2019-03-31T21:30:24.388Z,14.40
2019-03-31T21:32:54.174Z,10.03
2019-03-31T21:35:23.800Z,9.37
2019-03-31T21:37:53.657Z,10.80
2019-03-31T21:40:23.428Z,9.30
2019-03-31T21:42:53.011Z,9.37
2019-03-31T21:45:22.441Z,8.63
2019-03-31T21:47:52.063Z,12.67
2019-03-31T21:50:21.627Z,9.50
2019-03-31T21:52:51.412Z,11.23
2019-03-31T21:55:21.090Z,11.53
2019-03-31T21:57:50.660Z,12.10
2019-03-31T22:00:26.442Z,10.53
2019-03-31T22:02:56.246Z,15.20
2019-03-31T22:05:25.990Z,10.40
2019-03-31T22:07:55.416Z,13.87
2019-03-31T22:10:24.934Z,11.10
2019-03-31T22:12:54.714Z,16.00
2019-03-31T22:15:24.476Z,9.90
2019-03-31T22:17:54.237Z,13.63
2019-03-31T22:20:23.876Z,9.87
2019-03-31T22:22:53.598Z,10.50
2019-03-31T22:25:23.364Z,8.67
2019-03-31T22:27:53.105Z,10.60
2019-03-31T22:30:22.624Z,11.23
2019-03-31T22:32:52.123Z,9.30
2019-03-31T22:35:21.755Z,12.17
2019-03-31T22:37:51.255Z,9.87
2019-03-31T22:40:20.855Z,10.57
2019-03-31T22:42:50.560Z,9.40
2019-03-31T22:45:20.260Z,9.47
2019-03-31T22:47:49.685Z,10.83
2019-03-31T22:50:19.129Z,8.80
2019-03-31T22:52:48.896Z,9.50
2019-03-31T22:55:18.652Z,10.43
2019-03-31T22:57:48.182Z,12.17
2019-03-31T23:00:28.011Z,8.77
2019-03-31T23:02:57.673Z,9.50
2019-03-31T23:05:27.485Z,8.07
2019-03-31T23:07:57.126Z,11.83
2019-03-31T23:10:27.019Z,9.47
2019-03-31T23:12:56.480Z,10.03
2019-03-31T23:15:26.164Z,9.30
2019-03-31T23:17:55.963Z,8.50
2019-03-31T23:20:25.707Z,8.83
2019-03-31T23:22:55.369Z,8.50
2019-03-31T23:25:24.815Z,9.23
2019-03-31T23:27:54.449Z,9.60
2019-03-31T23:30:24.134Z,12.03
2019-03-31T23:32:53.730Z,9.97
2019-03-31T23:35:23.439Z,9.23
2019-03-31T23:37:53.093Z,10.37
2019-03-31T23:40:22.889Z,8.13
2019-03-31T23:42:52.476Z,9.33
2019-03-31T23:45:22.261Z,8.63
2019-03-31T23:47:51.944Z,9.63
2019-03-31T23:50:21.529Z,8.83
2019-03-31T23:52:51.317Z,10.00
2019-03-31T23:55:20.943Z,9.47
2019-03-31T23:57:50.507Z,9.07
